createdAt,value
2022-12-19T00:01:38.000Z,6.52
2022-12-19T00:04:09.111Z,6.61
2022-12-19T00:06:37.943Z,6.85
2022-12-19T00:09:10.009Z,6.99
2022-12-19T00:11:36.676Z,7.16
2022-12-19T00:14:03.287Z,7.13
2022-12-19T00:16:30.908Z,6.88
2022-12-19T00:19:00.412Z,7.00
2022-12-19T00:21:30.321Z,6.96
2022-12-19T00:23:57.690Z,6.65
2022-12-19T00:26:35.633Z,6.74
2022-12-19T00:29:13.861Z,6.91
2022-12-19T00:31:41.078Z,6.56
2022-12-19T00:34:09.235Z,6.66
2022-12-19T00:36:36.004Z,6.87
2022-12-19T00:39:08.528Z,6.93
2022-12-19T00:41:37.602Z,6.86
2022-12-19T00:44:12.295Z,6.51
2022-12-19T00:46:38.946Z,6.34
2022-12-19T00:49:06.284Z,5.85
2022-12-19T00:51:35.441Z,5.98
2022-12-19T00:54:04.191Z,6.39
2022-12-19T00:56:37.487Z,6.70
2022-12-19T00:59:05.279Z,6.81
2022-12-19T01:01:34.987Z,7.04
2022-12-19T01:04:27.620Z,7.24
2022-12-19T01:06:50.778Z,7.30
2022-12-19T01:09:17.443Z,7.39
2022-12-19T01:11:44.481Z,6.82
2022-12-19T01:14:19.046Z,7.22
2022-12-19T01:16:49.489Z,7.32
2022-12-19T01:19:16.250Z,7.13
2022-12-19T01:21:42.848Z,6.51
2022-12-19T01:24:10.835Z,6.33
2022-12-19T01:26:37.452Z,6.63
2022-12-19T01:29:04.833Z,6.96
2022-12-19T01:31:32.574Z,7.11
2022-12-19T01:34:00.295Z,6.74
2022-12-19T01:36:28.757Z,6.38
2022-12-19T01:38:57.827Z,6.77
2022-12-19T01:41:24.847Z,7.04
2022-12-19T01:44:04.149Z,6.48
2022-12-19T01:46:39.805Z,6.91
2022-12-19T01:49:16.075Z,7.06
2022-12-19T01:51:48.055Z,7.06
2022-12-19T01:54:26.678Z,7.17
2022-12-19T01:56:58.582Z,6.86
2022-12-19T01:59:35.739Z,7.17
2022-12-19T02:02:19.877Z,7.24
2022-12-19T02:04:47.807Z,7.31
2022-12-19T02:07:18.724Z,7.32
2022-12-19T02:09:51.931Z,6.91
2022-12-19T02:12:31.227Z,7.15
2022-12-19T02:15:03.237Z,7.07
2022-12-19T02:17:40.455Z,7.02
2022-12-19T02:20:36.770Z,7.13
2022-12-19T02:23:05.969Z,7.12
2022-12-19T02:25:57.015Z,6.91
2022-12-19T02:28:45.611Z,6.46
2022-12-19T02:31:31.330Z,6.67
2022-12-19T02:34:06.959Z,6.68
2022-12-19T02:37:05.433Z,6.63
2022-12-19T02:39:42.880Z,6.57
2022-12-19T02:42:15.107Z,5.49
2022-12-19T02:44:51.415Z,5.81
2022-12-19T02:47:21.120Z,6.03
2022-12-19T02:49:48.145Z,5.95
2022-12-19T02:52:20.481Z,6.03
2022-12-19T02:54:56.095Z,5.28
2022-12-19T02:57:28.720Z,5.25
2022-12-19T03:00:14.229Z,5.92
2022-12-19T03:03:10.309Z,6.31
2022-12-19T03:05:36.994Z,6.72
2022-12-19T03:08:18.859Z,6.70
2022-12-19T03:10:58.557Z,6.67
2022-12-19T03:13:37.966Z,6.86
2022-12-19T03:16:09.418Z,6.48
2022-12-19T03:18:36.308Z,5.91
2022-12-19T03:21:13.058Z,6.37
2022-12-19T03:23:41.066Z,5.82
2022-12-19T03:26:21.444Z,6.13
2022-12-19T03:29:15.402Z,6.10
2022-12-19T03:31:45.175Z,6.23
2022-12-19T03:34:29.954Z,6.33
2022-12-19T03:37:03.133Z,6.02
2022-12-19T03:39:32.808Z,6.02
2022-12-19T03:42:03.125Z,4.13
2022-12-19T03:44:41.098Z,4.84
2022-12-19T03:47:26.576Z,4.98
2022-12-19T03:49:53.643Z,5.36
2022-12-19T03:52:28.813Z,5.65
2022-12-19T03:55:13.181Z,6.08
2022-12-19T03:58:06.778Z,6.41
2022-12-19T04:00:37.739Z,6.63
2022-12-19T04:03:06.949Z,6.42
2022-12-19T04:05:37.150Z,6.37
2022-12-19T04:08:08.091Z,6.68
2022-12-19T04:10:43.844Z,6.73
2022-12-19T04:13:40.014Z,6.51
2022-12-19T04:16:44.808Z,6.24
2022-12-19T04:19:29.396Z,5.80
2022-12-19T04:22:06.730Z,6.06
2022-12-19T04:24:37.918Z,6.64
2022-12-19T04:27:09.118Z,5.67
2022-12-19T04:29:38.438Z,6.28
2022-12-19T04:32:08.266Z,6.89
2022-12-19T04:34:38.863Z,7.02
2022-12-19T04:37:08.076Z,6.95
2022-12-19T04:39:34.726Z,7.21
2022-12-19T04:42:01.336Z,7.04
2022-12-19T04:44:27.944Z,7.02
2022-12-19T04:46:55.640Z,6.63
2022-12-19T04:49:22.379Z,7.09
2022-12-19T04:51:49.120Z,7.05
2022-12-19T04:54:15.729Z,6.84
2022-12-19T04:56:42.426Z,6.54
2022-12-19T04:59:09.968Z,6.77
2022-12-19T05:01:36.808Z,6.60
2022-12-19T05:04:04.750Z,6.49
2022-12-19T05:06:32.222Z,6.53
2022-12-19T05:08:58.883Z,6.66
2022-12-19T05:11:25.477Z,6.84
2022-12-19T05:13:52.061Z,6.86
2022-12-19T05:16:19.245Z,6.43
2022-12-19T05:18:45.932Z,6.08
2022-12-19T05:21:13.077Z,6.02
2022-12-19T05:23:39.863Z,6.21
2022-12-19T05:26:07.415Z,6.51
2022-12-19T05:28:34.452Z,6.38
2022-12-19T05:31:10.015Z,5.31
2022-12-19T05:33:37.494Z,5.88
2022-12-19T05:36:05.316Z,5.30
2022-12-19T05:38:32.324Z,5.04
2022-12-19T05:40:58.937Z,4.65
2022-12-19T05:43:25.992Z,3.96
2022-12-19T05:45:52.656Z,3.68
2022-12-19T05:48:19.268Z,4.76
2022-12-19T05:50:50.493Z,5.23
2022-12-19T05:53:25.758Z,4.91
2022-12-19T05:55:53.176Z,5.50
2022-12-19T05:58:19.776Z,5.76
2022-12-19T06:00:46.384Z,5.82
2022-12-19T06:03:13.116Z,5.27
2022-12-19T06:05:39.813Z,5.07
2022-12-19T06:08:06.428Z,5.41
2022-12-19T06:10:33.079Z,5.36
2022-12-19T06:12:59.718Z,5.79
2022-12-19T06:15:26.369Z,5.98
2022-12-19T06:17:54.389Z,5.55
2022-12-19T06:20:21.047Z,5.62
2022-12-19T06:22:47.661Z,5.56
2022-12-19T06:25:14.359Z,5.69
2022-12-19T06:27:41.012Z,6.02
2022-12-19T06:30:07.937Z,6.26
2022-12-19T06:32:38.181Z,5.74
2022-12-19T06:35:05.832Z,5.82
2022-12-19T06:37:32.504Z,5.43
2022-12-19T06:39:59.163Z,5.36
2022-12-19T06:42:25.807Z,5.62
2022-12-19T06:44:55.954Z,5.08
2022-12-19T06:47:24.553Z,4.39
2022-12-19T06:49:51.403Z,5.12
2022-12-19T06:52:18.046Z,4.15
2022-12-19T06:54:44.716Z,3.95
2022-12-19T06:57:11.348Z,4.24
2022-12-19T06:59:37.970Z,4.92
2022-12-19T07:02:21.830Z,4.77
2022-12-19T07:05:03.919Z,5.08
2022-12-19T07:07:30.573Z,4.56
2022-12-19T07:09:57.260Z,5.08
2022-12-19T07:12:24.036Z,5.55
2022-12-19T07:14:53.585Z,5.04
2022-12-19T07:17:24.268Z,4.39
2022-12-19T07:19:53.146Z,5.05
2022-12-19T07:22:20.615Z,5.21
2022-12-19T07:24:47.831Z,4.88
2022-12-19T07:27:14.783Z,5.45
2022-12-19T07:29:41.483Z,5.84
2022-12-19T07:32:08.156Z,6.07
2022-12-19T07:34:34.756Z,6.03
2022-12-19T07:37:01.401Z,5.80
2022-12-19T07:39:28.025Z,5.11
2022-12-19T07:41:54.686Z,5.22
2022-12-19T07:44:21.286Z,5.53
2022-12-19T07:46:47.875Z,5.70
2022-12-19T07:49:19.597Z,5.20
2022-12-19T07:51:49.025Z,4.24
2022-12-19T07:54:15.618Z,3.82
2022-12-19T07:56:42.208Z,4.80
2022-12-19T07:59:09.403Z,5.35
2022-12-19T08:01:36.084Z,5.67
2022-12-19T08:04:02.949Z,5.26
2022-12-19T08:06:29.551Z,6.00
2022-12-19T08:08:56.885Z,6.27
2022-12-19T08:11:23.824Z,6.37
2022-12-19T08:13:50.460Z,6.39
2022-12-19T08:16:17.190Z,6.26
2022-12-19T08:18:43.975Z,5.81
2022-12-19T08:21:11.120Z,6.67
2022-12-19T08:23:38.111Z,6.26
2022-12-19T08:26:07.853Z,6.47
2022-12-19T08:28:35.867Z,6.26
2022-12-19T08:31:08.342Z,6.35
2022-12-19T08:33:35.717Z,7.02
2022-12-19T08:36:12.518Z,7.22
2022-12-19T08:38:39.825Z,7.40
2022-12-19T08:41:07.585Z,7.77
2022-12-19T08:43:34.803Z,7.93
2022-12-19T08:46:02.043Z,8.20
2022-12-19T08:48:28.848Z,8.35
2022-12-19T08:51:04.627Z,8.26
2022-12-19T08:53:33.580Z,8.43
2022-12-19T08:56:02.853Z,8.31
2022-12-19T08:58:30.757Z,8.17
2022-12-19T09:01:05.648Z,7.47
2022-12-19T09:03:35.267Z,7.14
2022-12-19T09:06:19.857Z,6.51
2022-12-19T09:08:46.750Z,6.49
2022-12-19T09:11:18.817Z,6.61
2022-12-19T09:13:47.670Z,6.31
2022-12-19T09:16:20.754Z,6.67
2022-12-19T09:18:52.996Z,6.87
2022-12-19T09:21:22.901Z,7.28
2022-12-19T09:23:56.139Z,7.48
2022-12-19T09:26:25.654Z,7.56
2022-12-19T09:28:54.504Z,8.02
2022-12-19T09:31:24.366Z,8.58
2022-12-19T09:33:52.180Z,8.90
2022-12-19T09:36:21.843Z,9.11
2022-12-19T09:38:49.070Z,8.64
2022-12-19T09:41:39.633Z,8.26
2022-12-19T09:44:29.186Z,7.97
2022-12-19T09:47:22.129Z,7.64
2022-12-19T09:49:49.066Z,7.23
2022-12-19T09:52:30.251Z,8.14
2022-12-19T09:55:12.162Z,7.88
2022-12-19T09:57:55.458Z,7.78
2022-12-19T10:00:23.434Z,8.41
2022-12-19T10:03:00.260Z,8.45
2022-12-19T10:06:25.530Z,8.07
2022-12-19T10:08:34.162Z,8.48
2022-12-19T10:12:36.133Z,8.54
2022-12-19T10:14:07.865Z,8.94
2022-12-19T10:17:22.403Z,8.89
2022-12-19T10:19:59.951Z,9.17
2022-12-19T10:23:03.084Z,8.66
2022-12-19T10:25:36.789Z,8.99
2022-12-19T10:28:25.939Z,9.00
2022-12-19T10:31:21.496Z,9.35
2022-12-19T10:34:13.794Z,9.34
2022-12-19T10:40:27.432Z,8.91
2022-12-19T10:43:44.372Z,9.06
2022-12-19T10:46:19.672Z,9.10
2022-12-19T10:48:50.641Z,8.77
2022-12-19T10:51:26.314Z,9.36
2022-12-19T10:54:03.715Z,9.73
2022-12-19T10:56:37.579Z,9.81
2022-12-19T10:59:17.184Z,9.23
2022-12-19T11:01:45.006Z,8.92
2022-12-19T11:04:18.877Z,9.27
2022-12-19T11:06:49.193Z,9.70
2022-12-19T11:09:31.648Z,9.82
2022-12-19T11:15:46.612Z,10.11
2022-12-19T11:19:57.743Z,9.89
2022-12-19T11:24:21.281Z,9.31
2022-12-19T11:29:39.513Z,9.72
2022-12-19T11:29:55.167Z,9.66
2022-12-19T11:30:37.607Z,8.91
2022-12-19T11:32:45.011Z,9.13
2022-12-19T11:35:24.831Z,9.56
2022-12-19T11:37:59.535Z,9.88
2022-12-19T11:40:48.432Z,9.28
2022-12-19T11:43:46.986Z,9.09
2022-12-19T11:46:34.690Z,9.55
2022-12-19T11:49:13.353Z,10.13
2022-12-19T11:52:04.584Z,10.11
2022-12-19T11:54:55.635Z,9.67
2022-12-19T11:57:23.301Z,9.93
2022-12-19T11:59:53.468Z,9.55
2022-12-19T12:02:39.215Z,9.56
2022-12-19T12:05:25.349Z,10.08
2022-12-19T12:09:48.701Z,10.45
2022-12-19T12:17:11.795Z,9.88
2022-12-19T12:22:08.692Z,10.12
2022-12-19T12:31:20.198Z,9.06
2022-12-19T12:31:30.963Z,10.14
2022-12-19T12:31:38.595Z,9.08
2022-12-19T12:31:39.391Z,9.16
2022-12-19T12:31:40.362Z,9.46
2022-12-19T12:36:00.036Z,10.06
2022-12-19T12:41:17.883Z,9.58
2022-12-19T12:44:09.017Z,9.35
2022-12-19T12:46:44.641Z,9.36
2022-12-19T12:49:33.299Z,9.81
2022-12-19T12:52:04.287Z,9.28
2022-12-19T12:54:38.090Z,9.93
2022-12-19T12:57:05.437Z,9.89
2022-12-19T12:59:32.593Z,9.99
2022-12-19T13:02:17.909Z,10.64
2022-12-19T13:05:00.788Z,10.99
2022-12-19T13:07:42.872Z,11.01
2022-12-19T13:10:18.553Z,11.20
2022-12-19T13:13:15.824Z,10.89
2022-12-19T13:15:45.681Z,10.59
2022-12-19T13:18:30.308Z,10.84
2022-12-19T13:20:58.742Z,10.10
2022-12-19T13:23:44.756Z,10.50
2022-12-19T13:26:43.127Z,10.23
2022-12-19T13:29:32.585Z,10.30
2022-12-19T13:32:15.559Z,10.45
2022-12-19T13:35:23.648Z,10.89
2022-12-19T13:39:51.037Z,10.44
2022-12-19T13:41:05.720Z,10.19
2022-12-19T13:43:42.239Z,10.05
2022-12-19T13:46:38.845Z,10.56
2022-12-19T13:49:18.704Z,10.91
2022-12-19T13:51:48.173Z,10.84
2022-12-19T13:54:39.502Z,11.14
2022-12-19T13:57:21.910Z,11.42
2022-12-19T14:00:00.388Z,11.75
2022-12-19T14:02:44.057Z,11.95
2022-12-19T14:05:34.019Z,12.08
2022-12-19T14:08:21.661Z,12.05
2022-12-19T14:11:40.883Z,11.80
2022-12-19T14:14:03.194Z,11.55
2022-12-19T14:16:43.359Z,11.03
2022-12-19T14:19:24.039Z,11.50
2022-12-19T14:22:04.418Z,11.58
2022-12-19T14:24:38.674Z,11.31
2022-12-19T14:28:18.863Z,10.42
2022-12-19T14:30:30.680Z,11.02
2022-12-19T14:33:45.928Z,10.95
2022-12-19T14:36:11.994Z,10.04
2022-12-19T14:39:25.776Z,11.10
2022-12-19T14:41:37.721Z,10.71
2022-12-19T14:52:53.663Z,10.48
2022-12-19T14:54:05.095Z,10.47
2022-12-19T14:54:16.722Z,10.78
2022-12-19T14:54:40.199Z,10.55
2022-12-19T14:59:02.582Z,10.42
2022-12-19T15:01:35.165Z,10.15
2022-12-19T15:04:50.608Z,10.52
2022-12-19T15:07:11.822Z,9.82
2022-12-19T15:11:08.383Z,9.94
2022-12-19T15:14:04.155Z,9.78
2022-12-19T15:15:50.838Z,10.02
2022-12-19T15:18:37.797Z,10.41
2022-12-19T15:21:08.072Z,9.81
2022-12-19T15:23:35.351Z,10.12
2022-12-19T15:26:06.540Z,10.58
2022-12-19T15:28:41.611Z,10.50
2022-12-19T15:31:41.563Z,10.68
2022-12-19T15:34:36.382Z,10.68
2022-12-19T15:37:08.535Z,9.43
2022-12-19T15:39:35.204Z,9.95
2022-12-19T15:42:02.878Z,10.38
2022-12-19T15:44:35.935Z,10.62
2022-12-19T15:47:06.473Z,9.64
2022-12-19T15:49:33.420Z,10.00
2022-12-19T15:52:00.100Z,10.25
2022-12-19T15:57:35.539Z,10.04
2022-12-19T16:00:16.123Z,9.31
2022-12-19T16:03:21.246Z,9.12
2022-12-19T16:05:29.733Z,9.73
2022-12-19T16:07:56.711Z,8.59
2022-12-19T16:10:23.368Z,8.50
2022-12-19T16:12:54.540Z,8.77
2022-12-19T16:15:30.521Z,8.87
2022-12-19T16:17:58.557Z,9.02
2022-12-19T16:20:33.267Z,8.92
2022-12-19T16:22:59.913Z,9.36
2022-12-19T16:25:45.011Z,9.78
2022-12-19T16:28:28.888Z,9.67
2022-12-19T16:31:01.956Z,9.48
2022-12-19T16:33:31.983Z,9.36
2022-12-19T16:36:07.148Z,9.70
2022-12-19T16:38:37.119Z,8.59
2022-12-19T16:41:04.102Z,9.32
2022-12-19T16:43:32.164Z,9.11
2022-12-19T16:46:01.484Z,9.24
2022-12-19T16:48:30.111Z,9.61
2022-12-19T16:50:58.250Z,8.99
2022-12-19T16:53:24.995Z,9.33
2022-12-19T16:55:54.017Z,9.65
2022-12-19T16:58:24.038Z,9.23
2022-12-19T17:00:54.201Z,9.17
2022-12-19T17:03:40.710Z,8.64
2022-12-19T17:06:18.826Z,8.99
2022-12-19T17:08:45.553Z,8.50
2022-12-19T17:11:25.836Z,9.08
2022-12-19T17:14:00.294Z,9.30
2022-12-19T17:16:27.007Z,8.97
2022-12-19T17:18:53.715Z,8.68
2022-12-19T17:21:22.388Z,9.06
2022-12-19T17:23:50.453Z,9.22
2022-12-19T17:26:18.350Z,9.56
2022-12-19T17:28:45.839Z,9.42
2022-12-19T17:31:26.016Z,8.96
2022-12-19T17:33:56.302Z,8.73
2022-12-19T17:36:32.629Z,8.28
2022-12-19T17:39:01.688Z,8.65
2022-12-19T17:41:28.333Z,8.98
2022-12-19T17:43:54.935Z,8.64
2022-12-19T17:46:24.240Z,8.93
2022-12-19T17:48:52.996Z,9.30
2022-12-19T17:51:21.910Z,9.27
2022-12-19T17:53:48.560Z,9.00
2022-12-19T17:56:17.962Z,8.93
2022-12-19T17:58:44.801Z,9.04
2022-12-19T18:01:23.199Z,9.43
2022-12-19T18:03:52.982Z,9.86
2022-12-19T18:06:20.724Z,9.63
2022-12-19T18:08:48.067Z,9.51
2022-12-19T18:11:26.142Z,9.66
2022-12-19T18:13:53.495Z,9.82
2022-12-19T18:16:26.372Z,9.39
2022-12-19T18:18:53.147Z,9.60
2022-12-19T18:21:21.921Z,9.54
2022-12-19T18:23:51.869Z,9.47
2022-12-19T18:26:18.480Z,9.57
2022-12-19T18:28:45.124Z,9.35
2022-12-19T18:31:24.817Z,9.26
2022-12-19T18:33:54.391Z,9.09
2022-12-19T18:36:24.873Z,9.11
2022-12-19T18:38:52.555Z,8.33
2022-12-19T18:41:20.028Z,8.70
2022-12-19T18:43:47.512Z,8.89
2022-12-19T18:46:23.741Z,8.74
2022-12-19T18:48:50.746Z,8.18
2022-12-19T18:51:21.266Z,8.41
2022-12-19T18:53:48.832Z,8.91
2022-12-19T18:56:16.064Z,8.91
2022-12-19T18:58:42.769Z,8.44
2022-12-19T19:01:19.091Z,8.48
2022-12-19T19:03:57.440Z,8.69
2022-12-19T19:06:27.567Z,9.32
2022-12-19T19:08:55.216Z,9.32
2022-12-19T19:11:21.829Z,9.26
2022-12-19T19:13:48.434Z,8.64
2022-12-19T19:16:27.862Z,9.21
2022-12-19T19:18:57.490Z,9.58
2022-12-19T19:21:29.333Z,9.41
2022-12-19T19:24:14.774Z,9.12
2022-12-19T19:26:41.551Z,9.64
2022-12-19T19:29:09.473Z,9.35
2022-12-19T19:31:40.741Z,9.34
2022-12-19T19:34:35.077Z,9.09
2022-12-19T19:37:04.432Z,9.22
2022-12-19T19:39:33.884Z,9.05
2022-12-19T19:42:00.770Z,8.72
2022-12-19T19:44:28.110Z,8.78
2022-12-19T19:46:54.737Z,7.87
2022-12-19T19:49:22.168Z,8.21
2022-12-19T19:51:49.002Z,7.83
2022-12-19T19:54:16.103Z,7.72
2022-12-19T19:56:42.856Z,8.00
2022-12-19T19:59:10.252Z,8.12
2022-12-19T20:01:37.393Z,7.97
2022-12-19T20:04:04.791Z,7.89
2022-12-19T20:06:31.767Z,7.31
2022-12-19T20:08:58.361Z,8.08
2022-12-19T20:11:25.183Z,8.23
2022-12-19T20:13:51.834Z,7.44
2022-12-19T20:16:19.259Z,7.89
2022-12-19T20:18:49.318Z,8.34
2022-12-19T20:21:16.523Z,8.20
2022-12-19T20:23:43.432Z,8.68
2022-12-19T20:26:12.172Z,7.38
2022-12-19T20:28:45.900Z,8.04
2022-12-19T20:31:14.834Z,8.20
2022-12-19T20:33:41.577Z,7.89
2022-12-19T20:36:10.913Z,7.70
2022-12-19T20:38:38.699Z,8.40
2022-12-19T20:41:05.855Z,8.17
2022-12-19T20:43:35.175Z,7.95
2022-12-19T20:46:03.993Z,7.53
2022-12-19T20:48:31.200Z,7.48
2022-12-19T20:50:59.406Z,7.17
2022-12-19T20:53:27.075Z,7.55
2022-12-19T20:55:58.131Z,7.62
2022-12-19T20:58:27.148Z,8.09
2022-12-19T21:01:03.723Z,8.27
2022-12-19T21:03:30.788Z,8.44
2022-12-19T21:05:58.350Z,8.66
2022-12-19T21:08:27.126Z,8.05
2022-12-19T21:10:54.602Z,8.63
2022-12-19T21:13:23.079Z,8.74
2022-12-19T21:15:54.238Z,8.34
2022-12-19T21:18:21.349Z,7.68
2022-12-19T21:20:49.158Z,7.90
2022-12-19T21:23:16.061Z,8.18
2022-12-19T21:25:42.810Z,7.67
2022-12-19T21:28:09.765Z,7.64
2022-12-19T21:30:36.688Z,7.86
2022-12-19T21:33:04.392Z,7.90
2022-12-19T21:35:33.145Z,6.92
2022-12-19T21:37:59.838Z,6.79
2022-12-19T21:40:26.869Z,6.68
2022-12-19T21:42:53.659Z,6.88
2022-12-19T21:45:20.362Z,6.87
2022-12-19T21:47:47.005Z,7.17
2022-12-19T21:50:15.072Z,7.08
2022-12-19T21:52:41.979Z,7.37
2022-12-19T21:55:10.012Z,7.74
2022-12-19T21:57:42.082Z,7.63
2022-12-19T22:00:12.895Z,7.61
2022-12-19T22:03:01.576Z,7.96
2022-12-19T22:05:30.286Z,7.86
2022-12-19T22:07:57.030Z,7.78
2022-12-19T22:10:23.694Z,8.19
2022-12-19T22:12:50.479Z,8.54
2022-12-19T22:15:17.132Z,8.25
2022-12-19T22:17:43.760Z,8.64
2022-12-19T22:20:10.464Z,8.85
2022-12-19T22:22:37.138Z,9.07
2022-12-19T22:25:05.917Z,9.04
2022-12-19T22:27:32.492Z,8.93
2022-12-19T22:30:02.096Z,8.74
2022-12-19T22:32:31.665Z,7.44
2022-12-19T22:34:58.316Z,7.54
2022-12-19T22:37:24.958Z,8.06
2022-12-19T22:39:51.569Z,7.07
2022-12-19T22:42:18.176Z,7.34
2022-12-19T22:44:44.749Z,7.31
2022-12-19T22:47:11.424Z,6.59
2022-12-19T22:49:38.080Z,7.04
2022-12-19T22:52:05.042Z,6.71
2022-12-19T22:54:31.741Z,6.92
2022-12-19T22:56:58.973Z,6.88
2022-12-19T22:59:25.720Z,7.32
2022-12-19T23:01:52.785Z,7.52
2022-12-19T23:04:19.835Z,7.63
2022-12-19T23:06:46.693Z,7.64
2022-12-19T23:09:17.080Z,8.15
2022-12-19T23:11:47.483Z,8.60
2022-12-19T23:14:17.333Z,8.09
2022-12-19T23:16:44.783Z,7.64
2022-12-19T23:19:11.995Z,8.07
2022-12-19T23:21:38.649Z,8.11
2022-12-19T23:24:05.751Z,8.16
2022-12-19T23:26:35.714Z,7.68
2022-12-19T23:29:06.344Z,7.39
2022-12-19T23:31:34.230Z,7.68
2022-12-19T23:34:01.680Z,7.52
2022-12-19T23:39:15.505Z,7.50
2022-12-19T23:41:42.639Z,7.70
2022-12-19T23:44:10.468Z,7.53
2022-12-19T23:46:37.697Z,7.71
2022-12-19T23:49:04.439Z,8.24
2022-12-19T23:51:31.197Z,8.07
2022-12-19T23:53:57.803Z,7.35
2022-12-19T23:56:28.098Z,7.77
2022-12-19T23:58:56.008Z,7.69
